sensor_id;sensor_type;location;lat;lon;timestamp;P1;durP1;ratioP1;P2;durP2;ratioP2
5121;SDS011;2563;52.242;7.956;2023-09-30T00:00:42;19.60;;;3.90;;
5121;SDS011;2563;52.242;7.956;2023-09-30T00:03:07;25.63;;;4.70;;
5121;SDS011;2563;52.242;7.956;2023-09-30T00:05:33;18.50;;;3.83;;
5121;SDS011;2563;52.242;7.956;2023-09-30T00:07:58;16.10;;;3.60;;
5121;SDS011;2563;52.242;7.956;2023-09-30T00:10:24;17.70;;;3.70;;
5121;SDS011;2563;52.242;7.956;2023-09-30T00:12:49;12.17;;;3.07;;
5121;SDS011;2563;52.242;7.956;2023-09-30T00:15:14;14.03;;;3.90;;
5121;SDS011;2563;52.242;7.956;2023-09-30T00:17:40;18.50;;;4.07;;
5121;SDS011;2563;52.242;7.956;2023-09-30T00:20:05;19.40;;;3.30;;
5121;SDS011;2563;52.242;7.956;2023-09-30T00:22:32;12.37;;;3.43;;
5121;SDS011;2563;52.242;7.956;2023-09-30T00:24:57;11.10;;;2.87;;
5121;SDS011;2563;52.242;7.956;2023-09-30T00:27:23;21.17;;;4.20;;
5121;SDS011;2563;52.242;7.956;2023-09-30T00:29:48;12.50;;;3.13;;
5121;SDS011;2563;52.242;7.956;2023-09-30T00:32:14;14.77;;;3.20;;
5121;SDS011;2563;52.242;7.956;2023-09-30T00:34:39;14.13;;;3.53;;
5121;SDS011;2563;52.242;7.956;2023-09-30T00:37:05;19.33;;;3.50;;
5121;SDS011;2563;52.242;7.956;2023-09-30T00:39:32;11.80;;;3.40;;
5121;SDS011;2563;52.242;7.956;2023-09-30T00:41:58;19.53;;;4.10;;
5121;SDS011;2563;52.242;7.956;2023-09-30T00:44:24;13.83;;;3.53;;
5121;SDS011;2563;52.242;7.956;2023-09-30T00:46:53;15.93;;;3.80;;
5121;SDS011;2563;52.242;7.956;2023-09-30T00:49:20;15.13;;;3.50;;
5121;SDS011;2563;52.242;7.956;2023-09-30T00:51:47;11.63;;;3.50;;
5121;SDS011;2563;52.242;7.956;2023-09-30T00:54:14;14.93;;;3.10;;
5121;SDS011;2563;52.242;7.956;2023-09-30T00:56:43;12.43;;;3.33;;
5121;SDS011;2563;52.242;7.956;2023-09-30T00:59:10;10.33;;;2.80;;
5121;SDS011;2563;52.242;7.956;2023-09-30T01:01:36;16.60;;;3.20;;
5121;SDS011;2563;52.242;7.956;2023-09-30T01:04:02;21.97;;;3.93;;
5121;SDS011;2563;52.242;7.956;2023-09-30T01:06:28;12.13;;;2.83;;
5121;SDS011;2563;52.242;7.956;2023-09-30T01:08:53;10.40;;;3.37;;
5121;SDS011;2563;52.242;7.956;2023-09-30T01:11:19;21.07;;;3.67;;
5121;SDS011;2563;52.242;7.956;2023-09-30T01:13:45;17.50;;;3.50;;
5121;SDS011;2563;52.242;7.956;2023-09-30T01:16:12;14.90;;;3.70;;
5121;SDS011;2563;52.242;7.956;2023-09-30T01:18:39;15.30;;;3.30;;
5121;SDS011;2563;52.242;7.956;2023-09-30T01:21:07;17.80;;;3.63;;
5121;SDS011;2563;52.242;7.956;2023-09-30T01:23:34;15.10;;;3.60;;
5121;SDS011;2563;52.242;7.956;2023-09-30T01:26:04;14.37;;;3.00;;
5121;SDS011;2563;52.242;7.956;2023-09-30T01:28:31;13.20;;;3.40;;
5121;SDS011;2563;52.242;7.956;2023-09-30T01:30:57;11.57;;;3.80;;
5121;SDS011;2563;52.242;7.956;2023-09-30T01:33:22;16.93;;;3.03;;
5121;SDS011;2563;52.242;7.956;2023-09-30T01:35:48;13.07;;;2.90;;
5121;SDS011;2563;52.242;7.956;2023-09-30T01:38:14;17.67;;;3.80;;
5121;SDS011;2563;52.242;7.956;2023-09-30T01:40:39;15.13;;;3.13;;
5121;SDS011;2563;52.242;7.956;2023-09-30T01:43:05;23.20;;;3.07;;
5121;SDS011;2563;52.242;7.956;2023-09-30T01:45:30;12.60;;;3.20;;
5121;SDS011;2563;52.242;7.956;2023-09-30T01:47:55;21.83;;;3.57;;
5121;SDS011;2563;52.242;7.956;2023-09-30T01:50:21;15.47;;;3.57;;
5121;SDS011;2563;52.242;7.956;2023-09-30T01:52:46;14.40;;;3.97;;
5121;SDS011;2563;52.242;7.956;2023-09-30T01:55:11;13.73;;;3.80;;
5121;SDS011;2563;52.242;7.956;2023-09-30T01:57:37;14.40;;;3.80;;
5121;SDS011;2563;52.242;7.956;2023-09-30T02:00:03;17.00;;;4.07;;
5121;SDS011;2563;52.242;7.956;2023-09-30T02:02:30;9.83;;;2.87;;
5121;SDS011;2563;52.242;7.956;2023-09-30T02:04:55;12.70;;;3.03;;
5121;SDS011;2563;52.242;7.956;2023-09-30T02:07:22;15.87;;;3.63;;
5121;SDS011;2563;52.242;7.956;2023-09-30T02:09:47;16.63;;;3.60;;
5121;SDS011;2563;52.242;7.956;2023-09-30T02:12:13;14.83;;;3.43;;
5121;SDS011;2563;52.242;7.956;2023-09-30T02:14:38;12.40;;;3.20;;
5121;SDS011;2563;52.242;7.956;2023-09-30T02:17:04;12.83;;;3.13;;
5121;SDS011;2563;52.242;7.956;2023-09-30T02:19:29;16.30;;;3.80;;
5121;SDS011;2563;52.242;7.956;2023-09-30T02:21:56;13.00;;;3.20;;
5121;SDS011;2563;52.242;7.956;2023-09-30T02:24:22;8.43;;;2.53;;
5121;SDS011;2563;52.242;7.956;2023-09-30T02:26:48;14.70;;;3.73;;
5121;SDS011;2563;52.242;7.956;2023-09-30T02:29:13;15.53;;;2.60;;
5121;SDS011;2563;52.242;7.956;2023-09-30T02:31:39;11.70;;;3.10;;
5121;SDS011;2563;52.242;7.956;2023-09-30T02:34:06;21.83;;;3.50;;
5121;SDS011;2563;52.242;7.956;2023-09-30T02:36:31;14.10;;;3.70;;
5121;SDS011;2563;52.242;7.956;2023-09-30T02:38:58;11.70;;;3.50;;
5121;SDS011;2563;52.242;7.956;2023-09-30T02:41:24;11.77;;;3.47;;
5121;SDS011;2563;52.242;7.956;2023-09-30T02:43:49;20.40;;;3.70;;
5121;SDS011;2563;52.242;7.956;2023-09-30T02:46:15;13.97;;;3.50;;
5121;SDS011;2563;52.242;7.956;2023-09-30T02:48:40;13.63;;;3.50;;
5121;SDS011;2563;52.242;7.956;2023-09-30T02:51:09;14.90;;;3.50;;
5121;SDS011;2563;52.242;7.956;2023-09-30T02:53:36;17.03;;;3.60;;
5121;SDS011;2563;52.242;7.956;2023-09-30T02:56:01;17.80;;;3.07;;
5121;SDS011;2563;52.242;7.956;2023-09-30T02:58:27;11.33;;;3.60;;
5121;SDS011;2563;52.242;7.956;2023-09-30T03:00:54;20.27;;;3.57;;
5121;SDS011;2563;52.242;7.956;2023-09-30T03:03:19;16.63;;;3.70;;
5121;SDS011;2563;52.242;7.956;2023-09-30T03:05:44;16.33;;;3.20;;
5121;SDS011;2563;52.242;7.956;2023-09-30T03:08:10;11.97;;;3.27;;
5121;SDS011;2563;52.242;7.956;2023-09-30T03:10:36;22.13;;;4.13;;
5121;SDS011;2563;52.242;7.956;2023-09-30T03:13:05;11.70;;;3.37;;
5121;SDS011;2563;52.242;7.956;2023-09-30T03:15:31;9.60;;;2.80;;
5121;SDS011;2563;52.242;7.956;2023-09-30T03:17:57;21.37;;;4.03;;
5121;SDS011;2563;52.242;7.956;2023-09-30T03:20:24;13.37;;;4.37;;
5121;SDS011;2563;52.242;7.956;2023-09-30T03:22:50;14.10;;;3.53;;
5121;SDS011;2563;52.242;7.956;2023-09-30T03:25:17;11.10;;;3.80;;
5121;SDS011;2563;52.242;7.956;2023-09-30T03:27:44;17.83;;;3.33;;
5121;SDS011;2563;52.242;7.956;2023-09-30T03:30:11;14.27;;;3.53;;
5121;SDS011;2563;52.242;7.956;2023-09-30T03:32:37;11.53;;;4.37;;
5121;SDS011;2563;52.242;7.956;2023-09-30T03:35:07;15.63;;;3.43;;
5121;SDS011;2563;52.242;7.956;2023-09-30T03:37:35;12.57;;;3.77;;
5121;SDS011;2563;52.242;7.956;2023-09-30T03:40:02;12.17;;;3.27;;
5121;SDS011;2563;52.242;7.956;2023-09-30T03:42:36;19.97;;;3.10;;
5121;SDS011;2563;52.242;7.956;2023-09-30T03:45:04;10.30;;;3.20;;
5121;SDS011;2563;52.242;7.956;2023-09-30T03:47:32;11.23;;;3.70;;
5121;SDS011;2563;52.242;7.956;2023-09-30T03:49:59;15.87;;;3.47;;
5121;SDS011;2563;52.242;7.956;2023-09-30T03:52:24;13.30;;;3.50;;
5121;SDS011;2563;52.242;7.956;2023-09-30T03:54:51;12.60;;;3.57;;
5121;SDS011;2563;52.242;7.956;2023-09-30T03:57:17;16.20;;;3.87;;
5121;SDS011;2563;52.242;7.956;2023-09-30T03:59:43;16.73;;;3.97;;
5121;SDS011;2563;52.242;7.956;2023-09-30T04:02:11;15.50;;;4.13;;
5121;SDS011;2563;52.242;7.956;2023-09-30T04:04:36;18.10;;;3.73;;
5121;SDS011;2563;52.242;7.956;2023-09-30T04:07:02;11.93;;;3.37;;
5121;SDS011;2563;52.242;7.956;2023-09-30T04:09:30;24.60;;;4.50;;
5121;SDS011;2563;52.242;7.956;2023-09-30T04:11:57;11.87;;;3.20;;
5121;SDS011;2563;52.242;7.956;2023-09-30T04:14:23;10.30;;;3.63;;
5121;SDS011;2563;52.242;7.956;2023-09-30T04:16:50;11.50;;;3.30;;
5121;SDS011;2563;52.242;7.956;2023-09-30T04:19:15;11.40;;;3.63;;
5121;SDS011;2563;52.242;7.956;2023-09-30T04:21:40;11.20;;;3.27;;
5121;SDS011;2563;52.242;7.956;2023-09-30T04:24:06;14.23;;;3.80;;
5121;SDS011;2563;52.242;7.956;2023-09-30T04:26:32;10.67;;;3.80;;
5121;SDS011;2563;52.242;7.956;2023-09-30T04:28:58;18.40;;;4.27;;
5121;SDS011;2563;52.242;7.956;2023-09-30T04:31:23;13.57;;;3.10;;
5121;SDS011;2563;52.242;7.956;2023-09-30T04:33:49;10.70;;;3.20;;
5121;SDS011;2563;52.242;7.956;2023-09-30T04:36:18;18.33;;;3.67;;
5121;SDS011;2563;52.242;7.956;2023-09-30T04:38:44;18.37;;;6.10;;
5121;SDS011;2563;52.242;7.956;2023-09-30T04:41:09;20.33;;;3.90;;
5121;SDS011;2563;52.242;7.956;2023-09-30T04:43:35;9.27;;;3.40;;
5121;SDS011;2563;52.242;7.956;2023-09-30T04:46:03;17.60;;;3.80;;
5121;SDS011;2563;52.242;7.956;2023-09-30T04:48:29;15.63;;;3.50;;
5121;SDS011;2563;52.242;7.956;2023-09-30T04:50:54;13.27;;;3.67;;
5121;SDS011;2563;52.242;7.956;2023-09-30T04:53:20;21.80;;;3.70;;
5121;SDS011;2563;52.242;7.956;2023-09-30T04:55:45;13.93;;;4.13;;
5121;SDS011;2563;52.242;7.956;2023-09-30T04:58:12;15.10;;;3.27;;
5121;SDS011;2563;52.242;7.956;2023-09-30T05:00:38;10.00;;;2.77;;
5121;SDS011;2563;52.242;7.956;2023-09-30T05:03:04;13.83;;;4.37;;
5121;SDS011;2563;52.242;7.956;2023-09-30T05:05:30;13.03;;;2.70;;
5121;SDS011;2563;52.242;7.956;2023-09-30T05:07:55;15.83;;;3.47;;
5121;SDS011;2563;52.242;7.956;2023-09-30T05:10:22;13.67;;;3.60;;
5121;SDS011;2563;52.242;7.956;2023-09-30T05:12:49;11.20;;;2.90;;
5121;SDS011;2563;52.242;7.956;2023-09-30T05:15:15;12.40;;;3.20;;
5121;SDS011;2563;52.242;7.956;2023-09-30T05:17:44;12.77;;;3.47;;
5121;SDS011;2563;52.242;7.956;2023-09-30T05:20:09;16.27;;;3.70;;
5121;SDS011;2563;52.242;7.956;2023-09-30T05:22:37;17.30;;;4.07;;
5121;SDS011;2563;52.242;7.956;2023-09-30T05:25:04;17.50;;;3.93;;
5121;SDS011;2563;52.242;7.956;2023-09-30T05:27:32;14.77;;;4.50;;
5121;SDS011;2563;52.242;7.956;2023-09-30T05:29:58;13.23;;;4.13;;
5121;SDS011;2563;52.242;7.956;2023-09-30T05:32:23;11.20;;;3.10;;
5121;SDS011;2563;52.242;7.956;2023-09-30T05:34:51;20.90;;;5.20;;
5121;SDS011;2563;52.242;7.956;2023-09-30T05:37:17;11.83;;;3.40;;
5121;SDS011;2563;52.242;7.956;2023-09-30T05:39:46;13.80;;;3.87;;
5121;SDS011;2563;52.242;7.956;2023-09-30T05:42:13;10.27;;;3.30;;
5121;SDS011;2563;52.242;7.956;2023-09-30T05:44:39;16.30;;;3.23;;
5121;SDS011;2563;52.242;7.956;2023-09-30T05:47:05;14.70;;;3.40;;
5121;SDS011;2563;52.242;7.956;2023-09-30T05:49:30;18.40;;;4.27;;
5121;SDS011;2563;52.242;7.956;2023-09-30T05:51:56;12.80;;;3.80;;
5121;SDS011;2563;52.242;7.956;2023-09-30T05:54:21;19.43;;;4.40;;
5121;SDS011;2563;52.242;7.956;2023-09-30T05:56:47;10.70;;;3.13;;
5121;SDS011;2563;52.242;7.956;2023-09-30T05:59:14;13.63;;;4.03;;
5121;SDS011;2563;52.242;7.956;2023-09-30T06:01:39;15.53;;;3.70;;
5121;SDS011;2563;52.242;7.956;2023-09-30T06:04:05;13.30;;;3.77;;
5121;SDS011;2563;52.242;7.956;2023-09-30T06:06:32;14.90;;;4.10;;
5121;SDS011;2563;52.242;7.956;2023-09-30T06:08:57;14.73;;;3.97;;
5121;SDS011;2563;52.242;7.956;2023-09-30T06:11:23;14.67;;;4.03;;
5121;SDS011;2563;52.242;7.956;2023-09-30T06:13:52;13.70;;;3.10;;
5121;SDS011;2563;52.242;7.956;2023-09-30T06:16:20;15.77;;;3.40;;
5121;SDS011;2563;52.242;7.956;2023-09-30T06:18:46;13.60;;;4.13;;
5121;SDS011;2563;52.242;7.956;2023-09-30T06:21:12;14.43;;;4.30;;
5121;SDS011;2563;52.242;7.956;2023-09-30T06:23:39;11.70;;;3.13;;
5121;SDS011;2563;52.242;7.956;2023-09-30T06:26:06;22.70;;;4.97;;
5121;SDS011;2563;52.242;7.956;2023-09-30T06:28:31;18.27;;;5.17;;
5121;SDS011;2563;52.242;7.956;2023-09-30T06:30:59;13.03;;;4.40;;
5121;SDS011;2563;52.242;7.956;2023-09-30T06:33:25;13.50;;;3.57;;
5121;SDS011;2563;52.242;7.956;2023-09-30T06:35:54;12.47;;;4.10;;
5121;SDS011;2563;52.242;7.956;2023-09-30T06:38:20;21.57;;;3.73;;
5121;SDS011;2563;52.242;7.956;2023-09-30T06:40:46;14.13;;;4.30;;
5121;SDS011;2563;52.242;7.956;2023-09-30T06:43:12;18.90;;;4.43;;
5121;SDS011;2563;52.242;7.956;2023-09-30T06:45:41;15.43;;;3.73;;
5121;SDS011;2563;52.242;7.956;2023-09-30T06:48:07;20.77;;;3.60;;
5121;SDS011;2563;52.242;7.956;2023-09-30T06:50:37;14.20;;;3.80;;
5121;SDS011;2563;52.242;7.956;2023-09-30T06:53:14;16.40;;;4.40;;
5121;SDS011;2563;52.242;7.956;2023-09-30T06:55:43;18.03;;;4.80;;
5121;SDS011;2563;52.242;7.956;2023-09-30T06:58:09;15.83;;;4.43;;
5121;SDS011;2563;52.242;7.956;2023-09-30T07:00:38;20.87;;;4.60;;
5121;SDS011;2563;52.242;7.956;2023-09-30T07:03:05;18.47;;;5.10;;
5121;SDS011;2563;52.242;7.956;2023-09-30T07:05:30;12.43;;;4.07;;
5121;SDS011;2563;52.242;7.956;2023-09-30T07:07:56;17.23;;;4.67;;
5121;SDS011;2563;52.242;7.956;2023-09-30T07:10:22;16.83;;;4.43;;
5121;SDS011;2563;52.242;7.956;2023-09-30T07:12:47;14.10;;;5.07;;
5121;SDS011;2563;52.242;7.956;2023-09-30T07:15:13;24.97;;;6.53;;
5121;SDS011;2563;52.242;7.956;2023-09-30T07:17:41;39.70;;;6.40;;
5121;SDS011;2563;52.242;7.956;2023-09-30T07:20:07;25.17;;;5.20;;
5121;SDS011;2563;52.242;7.956;2023-09-30T07:22:35;18.07;;;4.80;;
5121;SDS011;2563;52.242;7.956;2023-09-30T07:25:00;18.63;;;4.73;;
5121;SDS011;2563;52.242;7.956;2023-09-30T07:27:26;14.03;;;4.43;;
5121;SDS011;2563;52.242;7.956;2023-09-30T07:29:51;9.60;;;4.07;;
5121;SDS011;2563;52.242;7.956;2023-09-30T07:32:17;10.23;;;4.37;;
5121;SDS011;2563;52.242;7.956;2023-09-30T07:34:42;12.07;;;4.47;;
5121;SDS011;2563;52.242;7.956;2023-09-30T07:37:08;14.07;;;5.53;;
5121;SDS011;2563;52.242;7.956;2023-09-30T07:39:34;13.20;;;4.57;;
5121;SDS011;2563;52.242;7.956;2023-09-30T07:42:00;12.73;;;4.70;;
5121;SDS011;2563;52.242;7.956;2023-09-30T07:44:26;13.60;;;3.97;;
5121;SDS011;2563;52.242;7.956;2023-09-30T07:46:51;13.90;;;4.33;;
5121;SDS011;2563;52.242;7.956;2023-09-30T07:49:17;13.47;;;4.13;;
5121;SDS011;2563;52.242;7.956;2023-09-30T07:51:42;12.60;;;4.63;;
5121;SDS011;2563;52.242;7.956;2023-09-30T07:54:08;12.07;;;4.83;;
5121;SDS011;2563;52.242;7.956;2023-09-30T07:56:33;14.70;;;4.43;;
5121;SDS011;2563;52.242;7.956;2023-09-30T07:58:59;19.43;;;5.93;;
5121;SDS011;2563;52.242;7.956;2023-09-30T08:01:24;11.73;;;4.23;;
5121;SDS011;2563;52.242;7.956;2023-09-30T08:03:50;13.00;;;4.00;;
5121;SDS011;2563;52.242;7.956;2023-09-30T08:06:15;15.00;;;4.47;;
5121;SDS011;2563;52.242;7.956;2023-09-30T08:08:41;13.60;;;4.63;;
5121;SDS011;2563;52.242;7.956;2023-09-30T08:11:06;15.10;;;4.87;;
5121;SDS011;2563;52.242;7.956;2023-09-30T08:13:34;16.57;;;4.50;;
5121;SDS011;2563;52.242;7.956;2023-09-30T08:16:00;17.10;;;5.40;;
5121;SDS011;2563;52.242;7.956;2023-09-30T08:18:25;11.73;;;5.73;;
5121;SDS011;2563;52.242;7.956;2023-09-30T08:20:51;12.23;;;5.30;;
5121;SDS011;2563;52.242;7.956;2023-09-30T08:23:16;13.90;;;5.50;;
5121;SDS011;2563;52.242;7.956;2023-09-30T08:25:41;14.07;;;4.90;;
5121;SDS011;2563;52.242;7.956;2023-09-30T08:28:07;9.93;;;4.70;;
5121;SDS011;2563;52.242;7.956;2023-09-30T08:30:34;13.10;;;4.63;;
5121;SDS011;2563;52.242;7.956;2023-09-30T08:33:00;13.97;;;4.70;;
5121;SDS011;2563;52.242;7.956;2023-09-30T08:35:25;11.20;;;4.63;;
5121;SDS011;2563;52.242;7.956;2023-09-30T08:37:50;12.00;;;4.73;;
5121;SDS011;2563;52.242;7.956;2023-09-30T08:40:22;11.37;;;4.50;;
5121;SDS011;2563;52.242;7.956;2023-09-30T08:42:51;14.43;;;4.87;;
5121;SDS011;2563;52.242;7.956;2023-09-30T08:45:18;13.87;;;4.17;;
5121;SDS011;2563;52.242;7.956;2023-09-30T08:47:44;13.07;;;3.87;;
5121;SDS011;2563;52.242;7.956;2023-09-30T08:50:11;15.50;;;4.50;;
5121;SDS011;2563;52.242;7.956;2023-09-30T08:52:41;9.57;;;4.00;;
5121;SDS011;2563;52.242;7.956;2023-09-30T08:55:08;13.67;;;4.90;;
5121;SDS011;2563;52.242;7.956;2023-09-30T08:57:38;13.20;;;5.10;;
5121;SDS011;2563;52.242;7.956;2023-09-30T09:00:06;12.33;;;4.63;;
5121;SDS011;2563;52.242;7.956;2023-09-30T09:02:36;11.00;;;5.03;;
5121;SDS011;2563;52.242;7.956;2023-09-30T09:05:02;10.87;;;4.20;;
5121;SDS011;2563;52.242;7.956;2023-09-30T09:07:28;10.23;;;4.20;;
5121;SDS011;2563;52.242;7.956;2023-09-30T09:10:06;11.30;;;4.53;;
5121;SDS011;2563;52.242;7.956;2023-09-30T09:12:34;13.30;;;5.33;;
5121;SDS011;2563;52.242;7.956;2023-09-30T09:15:02;12.30;;;4.33;;
5121;SDS011;2563;52.242;7.956;2023-09-30T09:17:43;13.70;;;5.00;;
5121;SDS011;2563;52.242;7.956;2023-09-30T09:20:10;13.93;;;5.07;;
5121;SDS011;2563;52.242;7.956;2023-09-30T09:22:42;10.80;;;5.20;;
5121;SDS011;2563;52.242;7.956;2023-09-30T09:25:08;23.90;;;7.97;;
5121;SDS011;2563;52.242;7.956;2023-09-30T09:27:34;14.80;;;5.87;;
5121;SDS011;2563;52.242;7.956;2023-09-30T09:35:20;17.10;;;5.00;;
5121;SDS011;2563;52.242;7.956;2023-09-30T09:37:56;11.17;;;4.63;;
5121;SDS011;2563;52.242;7.956;2023-09-30T09:40:29;12.03;;;5.00;;
5121;SDS011;2563;52.242;7.956;2023-09-30T09:42:57;11.60;;;4.77;;
5121;SDS011;2563;52.242;7.956;2023-09-30T09:45:25;16.43;;;5.37;;
5121;SDS011;2563;52.242;7.956;2023-09-30T09:47:51;13.60;;;5.10;;
5121;SDS011;2563;52.242;7.956;2023-09-30T09:50:21;16.80;;;6.53;;
5121;SDS011;2563;52.242;7.956;2023-09-30T09:52:48;13.37;;;5.67;;
5121;SDS011;2563;52.242;7.956;2023-09-30T09:55:18;12.73;;;5.83;;
5121;SDS011;2563;52.242;7.956;2023-09-30T09:57:46;10.87;;;5.00;;
5121;SDS011;2563;52.242;7.956;2023-09-30T10:00:12;20.13;;;7.17;;
5121;SDS011;2563;52.242;7.956;2023-09-30T10:02:40;9.83;;;5.10;;
5121;SDS011;2563;52.242;7.956;2023-09-30T10:05:06;11.90;;;4.87;;
5121;SDS011;2563;52.242;7.956;2023-09-30T10:07:33;13.70;;;5.83;;
5121;SDS011;2563;52.242;7.956;2023-09-30T10:10:02;8.90;;;4.60;;
5121;SDS011;2563;52.242;7.956;2023-09-30T10:12:37;11.27;;;5.10;;
5121;SDS011;2563;52.242;7.956;2023-09-30T10:18:00;16.60;;;5.03;;
5121;SDS011;2563;52.242;7.956;2023-09-30T10:20:32;10.70;;;4.93;;
5121;SDS011;2563;52.242;7.956;2023-09-30T10:31:10;9.80;;;4.60;;
5121;SDS011;2563;52.242;7.956;2023-09-30T10:36:35;20.97;;;4.97;;
5121;SDS011;2563;52.242;7.956;2023-09-30T10:39:05;7.73;;;3.83;;
5121;SDS011;2563;52.242;7.956;2023-09-30T10:46:57;13.27;;;4.03;;
5121;SDS011;2563;52.242;7.956;2023-09-30T10:51:56;8.03;;;3.37;;
5121;SDS011;2563;52.242;7.956;2023-09-30T10:54:26;8.23;;;2.60;;
5121;SDS011;2563;52.242;7.956;2023-09-30T10:56:52;15.20;;;4.10;;
5121;SDS011;2563;52.242;7.956;2023-09-30T10:59:19;9.97;;;3.07;;
5121;SDS011;2563;52.242;7.956;2023-09-30T11:01:45;11.10;;;3.67;;
5121;SDS011;2563;52.242;7.956;2023-09-30T11:04:11;8.27;;;2.80;;
5121;SDS011;2563;52.242;7.956;2023-09-30T11:06:39;9.40;;;3.90;;
5121;SDS011;2563;52.242;7.956;2023-09-30T11:09:06;7.83;;;3.00;;
5121;SDS011;2563;52.242;7.956;2023-09-30T11:13:59;9.03;;;3.20;;
5121;SDS011;2563;52.242;7.956;2023-09-30T11:16:25;8.70;;;3.60;;
5121;SDS011;2563;52.242;7.956;2023-09-30T11:18:53;13.57;;;3.90;;
5121;SDS011;2563;52.242;7.956;2023-09-30T11:21:19;9.40;;;3.60;;
5121;SDS011;2563;52.242;7.956;2023-09-30T11:23:45;11.07;;;3.93;;
5121;SDS011;2563;52.242;7.956;2023-09-30T11:26:10;7.37;;;3.93;;
5121;SDS011;2563;52.242;7.956;2023-09-30T11:28:39;10.87;;;4.03;;
5121;SDS011;2563;52.242;7.956;2023-09-30T11:31:07;21.37;;;3.90;;
5121;SDS011;2563;52.242;7.956;2023-09-30T11:33:51;11.53;;;3.97;;
5121;SDS011;2563;52.242;7.956;2023-09-30T11:36:18;9.60;;;3.47;;
5121;SDS011;2563;52.242;7.956;2023-09-30T11:38:46;6.70;;;2.87;;
5121;SDS011;2563;52.242;7.956;2023-09-30T11:41:13;12.10;;;3.43;;
5121;SDS011;2563;52.242;7.956;2023-09-30T11:43:38;11.50;;;3.10;;
5121;SDS011;2563;52.242;7.956;2023-09-30T11:46:08;9.67;;;3.33;;
5121;SDS011;2563;52.242;7.956;2023-09-30T11:48:39;6.87;;;3.33;;
5121;SDS011;2563;52.242;7.956;2023-09-30T11:51:20;8.27;;;2.40;;
5121;SDS011;2563;52.242;7.956;2023-09-30T11:53:49;10.13;;;3.37;;
5121;SDS011;2563;52.242;7.956;2023-09-30T11:56:15;8.80;;;3.10;;
5121;SDS011;2563;52.242;7.956;2023-09-30T11:58:41;7.80;;;3.13;;
5121;SDS011;2563;52.242;7.956;2023-09-30T12:01:06;6.47;;;2.93;;
5121;SDS011;2563;52.242;7.956;2023-09-30T12:03:32;8.83;;;2.43;;
5121;SDS011;2563;52.242;7.956;2023-09-30T12:06:01;7.63;;;2.70;;
5121;SDS011;2563;52.242;7.956;2023-09-30T12:08:27;6.90;;;3.20;;
5121;SDS011;2563;52.242;7.956;2023-09-30T12:10:54;8.93;;;4.10;;
5121;SDS011;2563;52.242;7.956;2023-09-30T12:13:20;8.33;;;3.60;;
5121;SDS011;2563;52.242;7.956;2023-09-30T12:15:46;6.43;;;2.67;;
5121;SDS011;2563;52.242;7.956;2023-09-30T12:18:11;7.30;;;3.03;;
5121;SDS011;2563;52.242;7.956;2023-09-30T12:20:39;26.13;;;4.50;;
5121;SDS011;2563;52.242;7.956;2023-09-30T12:23:06;12.70;;;3.40;;
5121;SDS011;2563;52.242;7.956;2023-09-30T12:25:32;23.67;;;4.20;;
5121;SDS011;2563;52.242;7.956;2023-09-30T12:27:58;24.33;;;3.53;;
5121;SDS011;2563;52.242;7.956;2023-09-30T12:30:24;10.53;;;3.27;;
5121;SDS011;2563;52.242;7.956;2023-09-30T12:32:49;39.53;;;5.90;;
5121;SDS011;2563;52.242;7.956;2023-09-30T12:35:15;10.40;;;2.50;;
5121;SDS011;2563;52.242;7.956;2023-09-30T12:37:40;8.90;;;3.20;;
5121;SDS011;2563;52.242;7.956;2023-09-30T12:40:07;8.03;;;2.10;;
5121;SDS011;2563;52.242;7.956;2023-09-30T12:42:36;9.40;;;3.00;;
5121;SDS011;2563;52.242;7.956;2023-09-30T12:45:01;7.97;;;2.77;;
5121;SDS011;2563;52.242;7.956;2023-09-30T12:47:27;8.17;;;3.03;;
5121;SDS011;2563;52.242;7.956;2023-09-30T12:49:53;9.73;;;3.43;;
5121;SDS011;2563;52.242;7.956;2023-09-30T12:52:19;7.60;;;2.70;;
5121;SDS011;2563;52.242;7.956;2023-09-30T12:54:46;6.40;;;2.63;;
5121;SDS011;2563;52.242;7.956;2023-09-30T12:57:13;6.87;;;2.60;;
5121;SDS011;2563;52.242;7.956;2023-09-30T12:59:42;7.97;;;2.80;;
5121;SDS011;2563;52.242;7.956;2023-09-30T13:02:09;12.63;;;4.50;;
5121;SDS011;2563;52.242;7.956;2023-09-30T13:04:34;7.93;;;2.63;;
5121;SDS011;2563;52.242;7.956;2023-09-30T13:07:00;8.10;;;2.80;;
5121;SDS011;2563;52.242;7.956;2023-09-30T13:09:25;9.60;;;2.80;;
5121;SDS011;2563;52.242;7.956;2023-09-30T13:11:51;7.47;;;3.20;;
5121;SDS011;2563;52.242;7.956;2023-09-30T13:14:16;6.93;;;3.17;;
5121;SDS011;2563;52.242;7.956;2023-09-30T13:16:43;6.70;;;3.63;;
5121;SDS011;2563;52.242;7.956;2023-09-30T13:19:09;6.90;;;3.00;;
5121;SDS011;2563;52.242;7.956;2023-09-30T13:21:34;7.40;;;2.60;;
5121;SDS011;2563;52.242;7.956;2023-09-30T13:23:59;7.73;;;4.20;;
5121;SDS011;2563;52.242;7.956;2023-09-30T13:26:25;5.73;;;2.10;;
5121;SDS011;2563;52.242;7.956;2023-09-30T13:28:50;12.93;;;2.80;;
5121;SDS011;2563;52.242;7.956;2023-09-30T13:31:16;7.77;;;3.13;;
5121;SDS011;2563;52.242;7.956;2023-09-30T13:33:41;6.37;;;2.60;;
5121;SDS011;2563;52.242;7.956;2023-09-30T13:36:07;11.70;;;3.37;;
5121;SDS011;2563;52.242;7.956;2023-09-30T13:38:32;7.00;;;3.67;;
5121;SDS011;2563;52.242;7.956;2023-09-30T13:40:58;9.17;;;3.30;;
5121;SDS011;2563;52.242;7.956;2023-09-30T13:43:24;7.63;;;3.60;;
5121;SDS011;2563;52.242;7.956;2023-09-30T13:45:51;7.20;;;2.57;;
5121;SDS011;2563;52.242;7.956;2023-09-30T13:48:16;11.03;;;2.73;;
5121;SDS011;2563;52.242;7.956;2023-09-30T13:50:41;6.20;;;2.07;;
5121;SDS011;2563;52.242;7.956;2023-09-30T13:53:07;5.73;;;2.50;;
5121;SDS011;2563;52.242;7.956;2023-09-30T13:55:32;8.97;;;2.80;;
5121;SDS011;2563;52.242;7.956;2023-09-30T13:57:57;7.53;;;2.90;;
5121;SDS011;2563;52.242;7.956;2023-09-30T14:00:23;5.80;;;2.10;;
5121;SDS011;2563;52.242;7.956;2023-09-30T14:02:48;6.10;;;2.07;;
5121;SDS011;2563;52.242;7.956;2023-09-30T14:05:15;6.90;;;2.20;;
5121;SDS011;2563;52.242;7.956;2023-09-30T14:07:41;6.60;;;2.37;;
5121;SDS011;2563;52.242;7.956;2023-09-30T14:10:08;6.47;;;2.10;;
5121;SDS011;2563;52.242;7.956;2023-09-30T14:12:35;6.27;;;2.53;;
5121;SDS011;2563;52.242;7.956;2023-09-30T14:15:01;7.03;;;2.93;;
5121;SDS011;2563;52.242;7.956;2023-09-30T14:17:26;10.03;;;2.63;;
5121;SDS011;2563;52.242;7.956;2023-09-30T14:19:51;8.27;;;2.33;;
5121;SDS011;2563;52.242;7.956;2023-09-30T14:22:17;9.70;;;2.47;;
5121;SDS011;2563;52.242;7.956;2023-09-30T14:24:43;7.03;;;2.40;;
5121;SDS011;2563;52.242;7.956;2023-09-30T14:27:08;11.93;;;2.60;;
5121;SDS011;2563;52.242;7.956;2023-09-30T14:29:34;7.17;;;2.30;;
5121;SDS011;2563;52.242;7.956;2023-09-30T14:31:59;10.67;;;2.60;;
5121;SDS011;2563;52.242;7.956;2023-09-30T14:34:25;7.57;;;2.30;;
5121;SDS011;2563;52.242;7.956;2023-09-30T14:36:51;6.23;;;2.30;;
5121;SDS011;2563;52.242;7.956;2023-09-30T14:39:16;5.63;;;2.23;;
5121;SDS011;2563;52.242;7.956;2023-09-30T14:41:43;5.30;;;2.40;;
5121;SDS011;2563;52.242;7.956;2023-09-30T14:44:09;7.50;;;2.40;;
5121;SDS011;2563;52.242;7.956;2023-09-30T14:46:37;12.63;;;3.13;;
5121;SDS011;2563;52.242;7.956;2023-09-30T14:49:03;5.07;;;1.93;;
5121;SDS011;2563;52.242;7.956;2023-09-30T14:51:28;10.17;;;3.07;;
5121;SDS011;2563;52.242;7.956;2023-09-30T14:53:54;5.47;;;2.37;;
5121;SDS011;2563;52.242;7.956;2023-09-30T14:56:19;9.77;;;2.23;;
5121;SDS011;2563;52.242;7.956;2023-09-30T14:58:45;8.23;;;2.53;;
5121;SDS011;2563;52.242;7.956;2023-09-30T15:01:12;12.03;;;2.53;;
5121;SDS011;2563;52.242;7.956;2023-09-30T15:03:38;7.07;;;2.27;;
5121;SDS011;2563;52.242;7.956;2023-09-30T15:06:04;11.70;;;2.43;;
5121;SDS011;2563;52.242;7.956;2023-09-30T15:08:30;11.83;;;3.20;;
5121;SDS011;2563;52.242;7.956;2023-09-30T15:10:59;8.23;;;2.10;;
5121;SDS011;2563;52.242;7.956;2023-09-30T15:13:25;6.00;;;2.60;;
5121;SDS011;2563;52.242;7.956;2023-09-30T15:15:51;5.13;;;2.30;;
5121;SDS011;2563;52.242;7.956;2023-09-30T15:18:16;6.20;;;2.40;;
5121;SDS011;2563;52.242;7.956;2023-09-30T15:20:42;5.17;;;2.33;;
5121;SDS011;2563;52.242;7.956;2023-09-30T15:23:08;5.33;;;2.10;;
5121;SDS011;2563;52.242;7.956;2023-09-30T15:25:38;11.43;;;2.30;;
5121;SDS011;2563;52.242;7.956;2023-09-30T15:28:05;4.90;;;2.20;;
5121;SDS011;2563;52.242;7.956;2023-09-30T15:30:30;9.07;;;3.30;;